DAL436 KDFW-KATL
Flight info
| Callsign | DAL436 |
|---|---|
| Flight time | 1h 34m |
| Altitude | 37000 |
| Route | TRYTN4 LOOSE MEMFS HUTCC KNSAW RUSSA GLAVN2 |
| Aircraft | A320/M-SDE3FGHIRWY/LB1 |
Departure
| Time | 2026-05-04 18:18 |
|---|---|
| Airport | Dallas Fort Worth International Airport (KDFW) |
Arrival
| Time | 2026-05-04 19:52 |
|---|---|
| Airport | Hartsfield Jackson Atlanta International Airport (KATL) |
| Time | Latitude | Longitude | Altitude | Speed | Heading |
|---|---|---|---|---|---|
| 2026-05-04 17:19 | 32.89171 | -97.03535 | 584 ft | 0 kts | 251° |
| 2026-05-04 18:07 | 32.89172 | -97.03531 | 584 ft | 3 kts | 251° |
| 2026-05-04 18:07 | 32.89180 | -97.03505 | 584 ft | 3 kts | 241° |
| 2026-05-04 18:08 | 32.89193 | -97.03484 | 584 ft | 3 kts | 206° |
| 2026-05-04 18:08 | 32.89212 | -97.03481 | 584 ft | 2 kts | 157° |
| 2026-05-04 18:08 | 32.89214 | -97.03482 | 584 ft | 0 kts | 156° |
| 2026-05-04 18:10 | 32.89213 | -97.03482 | 584 ft | 0 kts | 156° |
| 2026-05-04 18:10 | 32.89201 | -97.03475 | 584 ft | 4 kts | 156° |
| 2026-05-04 18:11 | 32.89177 | -97.03434 | 584 ft | 9 kts | 94° |
| 2026-05-04 18:11 | 32.89177 | -97.03346 | 584 ft | 10 kts | 90° |
| 2026-05-04 18:11 | 32.89177 | -97.03251 | 578 ft | 14 kts | 90° |
| 2026-05-04 18:11 | 32.89251 | -97.03196 | 579 ft | 13 kts | 1° |
| 2026-05-04 18:12 | 32.89337 | -97.03196 | 578 ft | 11 kts | 0° |
| 2026-05-04 18:12 | 32.89418 | -97.03196 | 580 ft | 13 kts | 360° |
| 2026-05-04 18:12 | 32.89521 | -97.03195 | 581 ft | 16 kts | 0° |
| 2026-05-04 18:12 | 32.89636 | -97.03195 | 580 ft | 18 kts | 360° |
| 2026-05-04 18:13 | 32.89774 | -97.03194 | 582 ft | 22 kts | 359° |
| 2026-05-04 18:13 | 32.89928 | -97.03192 | 578 ft | 21 kts | 0° |
| 2026-05-04 18:13 | 32.90215 | -97.03191 | 576 ft | 21 kts | 0° |
| 2026-05-04 18:14 | 32.90355 | -97.03190 | 573 ft | 19 kts | 0° |
| 2026-05-04 18:14 | 32.90478 | -97.03190 | 578 ft | 17 kts | 359° |
| 2026-05-04 18:14 | 32.90599 | -97.03190 | 573 ft | 18 kts | 359° |
| 2026-05-04 18:15 | 32.90846 | -97.03189 | 579 ft | 16 kts | 0° |
| 2026-05-04 18:15 | 32.91101 | -97.03187 | 580 ft | 19 kts | 1° |
| 2026-05-04 18:15 | 32.91234 | -97.03186 | 581 ft | 19 kts | 360° |
| 2026-05-04 18:16 | 32.91376 | -97.03185 | 579 ft | 22 kts | 1° |
| 2026-05-04 18:16 | 32.91476 | -97.03183 | 579 ft | 9 kts | 17° |
| 2026-05-04 18:16 | 32.91491 | -97.03105 | 577 ft | 11 kts | 92° |
| 2026-05-04 18:17 | 32.91390 | -97.02989 | 577 ft | 18 kts | 180° |
| 2026-05-04 18:17 | 32.91047 | -97.02991 | 579 ft | 83 kts | 180° |
| 2026-05-04 18:17 | 32.89241 | -97.03002 | 946 ft | 151 kts | 180° |
| 2026-05-04 18:18 | 32.88180 | -97.03008 | 1522 ft | 157 kts | 179° |
| 2026-05-04 18:18 | 32.87071 | -97.02970 | 2198 ft | 159 kts | 180° |
| 2026-05-04 18:18 | 32.85924 | -97.02910 | 2673 ft | 174 kts | 179° |
| 2026-05-04 18:18 | 32.84637 | -97.02703 | 3012 ft | 201 kts | 163° |
| 2026-05-04 18:19 | 32.81763 | -97.01253 | 3941 ft | 245 kts | 162° |
| 2026-05-04 18:19 | 32.80142 | -97.00454 | 4660 ft | 257 kts | 163° |
| 2026-05-04 18:19 | 32.78576 | -96.99307 | 5407 ft | 278 kts | 140° |
| 2026-05-04 18:20 | 32.77526 | -96.97312 | 6188 ft | 294 kts | 114° |
| 2026-05-04 18:20 | 32.76846 | -96.94992 | 6996 ft | 301 kts | 108° |
| 2026-05-04 18:20 | 32.76557 | -96.92502 | 7794 ft | 308 kts | 91° |
| 2026-05-04 18:20 | 32.76644 | -96.89937 | 8631 ft | 313 kts | 88° |
| 2026-05-04 18:21 | 32.76741 | -96.87326 | 9455 ft | 317 kts | 88° |
| 2026-05-04 18:21 | 32.76832 | -96.84695 | 10258 ft | 322 kts | 87° |
| 2026-05-04 18:21 | 32.77163 | -96.81967 | 10535 ft | 345 kts | 75° |
| 2026-05-04 18:21 | 32.77889 | -96.79159 | 10900 ft | 363 kts | 70° |
| 2026-05-04 18:22 | 32.78657 | -96.76277 | 11590 ft | 368 kts | 70° |
| 2026-05-04 18:22 | 32.79425 | -96.73355 | 12342 ft | 372 kts | 70° |
| 2026-05-04 18:22 | 32.80191 | -96.70406 | 13089 ft | 376 kts | 70° |
| 2026-05-04 18:22 | 32.80963 | -96.67421 | 13808 ft | 380 kts | 69° |
| 2026-05-04 18:23 | 32.81742 | -96.64395 | 14438 ft | 384 kts | 69° |
| 2026-05-04 18:23 | 32.82529 | -96.61343 | 15070 ft | 388 kts | 69° |
| 2026-05-04 18:23 | 32.83326 | -96.58256 | 15674 ft | 393 kts | 69° |
| 2026-05-04 18:23 | 32.84135 | -96.55124 | 16304 ft | 398 kts | 69° |
| 2026-05-04 18:24 | 32.84948 | -96.51962 | 16913 ft | 403 kts | 69° |
| 2026-05-04 18:24 | 32.85764 | -96.48789 | 17511 ft | 407 kts | 69° |
| 2026-05-04 18:24 | 32.86593 | -96.45555 | 18123 ft | 411 kts | 69° |
| 2026-05-04 18:24 | 32.87429 | -96.42290 | 18673 ft | 415 kts | 69° |
| 2026-05-04 18:25 | 32.88273 | -96.38983 | 19189 ft | 419 kts | 69° |
| 2026-05-04 18:25 | 32.89124 | -96.35640 | 19696 ft | 423 kts | 69° |
| 2026-05-04 18:25 | 32.90002 | -96.32278 | 20225 ft | 426 kts | 67° |
| 2026-05-04 18:25 | 32.90987 | -96.28938 | 20737 ft | 429 kts | 65° |
| 2026-05-04 18:26 | 32.92065 | -96.25618 | 21254 ft | 432 kts | 63° |
| 2026-05-04 18:26 | 32.93199 | -96.22284 | 21776 ft | 435 kts | 62° |
| 2026-05-04 18:26 | 32.94349 | -96.18934 | 22288 ft | 439 kts | 62° |
| 2026-05-04 18:26 | 32.95498 | -96.15547 | 22802 ft | 443 kts | 63° |
| 2026-05-04 18:27 | 32.96638 | -96.12114 | 23303 ft | 447 kts | 63° |
| 2026-05-04 18:27 | 32.97765 | -96.08641 | 23766 ft | 451 kts | 63° |
| 2026-05-04 18:27 | 32.98890 | -96.05132 | 24123 ft | 456 kts | 63° |
| 2026-05-04 18:27 | 33.00025 | -96.01576 | 24501 ft | 460 kts | 63° |
| 2026-05-04 18:28 | 33.01164 | -95.98001 | 24861 ft | 464 kts | 63° |
| 2026-05-04 18:28 | 33.02314 | -95.94399 | 25264 ft | 467 kts | 62° |
| 2026-05-04 18:28 | 33.03477 | -95.90766 | 25626 ft | 471 kts | 62° |
| 2026-05-04 18:28 | 33.04651 | -95.87106 | 25984 ft | 474 kts | 62° |
| 2026-05-04 18:29 | 33.05819 | -95.83470 | 26335 ft | 478 kts | 61° |
| 2026-05-04 18:29 | 33.07013 | -95.79759 | 26682 ft | 480 kts | 61° |
| 2026-05-04 18:29 | 33.08219 | -95.76021 | 27007 ft | 484 kts | 61° |
| 2026-05-04 18:29 | 33.09430 | -95.72261 | 27323 ft | 487 kts | 61° |
| 2026-05-04 18:30 | 33.11873 | -95.64650 | 28048 ft | 493 kts | 60° |
| 2026-05-04 18:30 | 33.13096 | -95.60812 | 28394 ft | 496 kts | 60° |
| 2026-05-04 18:30 | 33.14323 | -95.56951 | 28698 ft | 499 kts | 60° |
| 2026-05-04 18:31 | 33.15558 | -95.53066 | 28994 ft | 503 kts | 60° |
| 2026-05-04 18:31 | 33.16804 | -95.49159 | 29287 ft | 506 kts | 60° |
| 2026-05-04 18:31 | 33.17635 | -95.46550 | 29469 ft | 508 kts | 60° |
| 2026-05-04 18:31 | 33.18892 | -95.42589 | 29753 ft | 511 kts | 60° |
| 2026-05-04 18:32 | 33.20151 | -95.38617 | 30031 ft | 513 kts | 60° |
| 2026-05-04 18:32 | 33.21829 | -95.33319 | 30343 ft | 517 kts | 60° |
| 2026-05-04 18:32 | 33.22690 | -95.30594 | 30534 ft | 517 kts | 60° |
| 2026-05-04 18:32 | 33.23954 | -95.26574 | 30794 ft | 518 kts | 60° |
| 2026-05-04 18:33 | 33.25226 | -95.22536 | 31028 ft | 520 kts | 60° |
| 2026-05-04 18:33 | 33.26506 | -95.18483 | 31257 ft | 522 kts | 59° |
| 2026-05-04 18:33 | 33.27792 | -95.14417 | 31484 ft | 524 kts | 59° |
| 2026-05-04 18:33 | 33.29063 | -95.10387 | 31794 ft | 523 kts | 59° |
| 2026-05-04 18:34 | 33.30339 | -95.06310 | 32106 ft | 522 kts | 59° |
| 2026-05-04 18:34 | 33.31608 | -95.02238 | 32422 ft | 522 kts | 59° |
| 2026-05-04 18:34 | 33.32876 | -94.98173 | 32726 ft | 522 kts | 59° |
| 2026-05-04 18:34 | 33.34148 | -94.94099 | 33076 ft | 521 kts | 59° |
| 2026-05-04 18:35 | 33.35413 | -94.90045 | 33390 ft | 520 kts | 59° |
| 2026-05-04 18:35 | 33.36675 | -94.85995 | 33693 ft | 520 kts | 58° |
| 2026-05-04 18:35 | 33.37942 | -94.81933 | 33982 ft | 520 kts | 58° |
| 2026-05-04 18:35 | 33.39207 | -94.77878 | 34230 ft | 520 kts | 58° |
| 2026-05-04 18:36 | 33.40471 | -94.73824 | 34490 ft | 519 kts | 58° |
| 2026-05-04 18:36 | 33.41713 | -94.69825 | 34750 ft | 519 kts | 58° |
| 2026-05-04 18:36 | 33.42982 | -94.65725 | 35006 ft | 519 kts | 58° |
| 2026-05-04 18:36 | 33.44218 | -94.61722 | 35255 ft | 518 kts | 58° |
| 2026-05-04 18:37 | 33.45469 | -94.57668 | 35492 ft | 518 kts | 58° |
| 2026-05-04 18:37 | 33.46715 | -94.53624 | 35761 ft | 517 kts | 58° |
| 2026-05-04 18:37 | 33.47960 | -94.49583 | 36017 ft | 515 kts | 58° |
| 2026-05-04 18:37 | 33.49198 | -94.45553 | 36249 ft | 515 kts | 58° |
| 2026-05-04 18:38 | 33.50434 | -94.41533 | 36474 ft | 514 kts | 58° |
| 2026-05-04 18:38 | 33.51667 | -94.37512 | 36696 ft | 513 kts | 58° |
| 2026-05-04 18:38 | 33.52898 | -94.33494 | 36918 ft | 513 kts | 58° |
| 2026-05-04 18:39 | 33.55362 | -94.25449 | 37001 ft | 516 kts | 58° |
| 2026-05-04 18:39 | 33.57834 | -94.17289 | 37024 ft | 524 kts | 58° |
| 2026-05-04 18:40 | 33.60283 | -94.09024 | 37008 ft | 527 kts | 59° |
| 2026-05-04 18:40 | 33.62721 | -94.00722 | 37023 ft | 527 kts | 59° |
| 2026-05-04 18:41 | 33.65170 | -93.92429 | 36999 ft | 528 kts | 58° |
| 2026-05-04 18:41 | 33.67631 | -93.84131 | 36998 ft | 528 kts | 58° |
| 2026-05-04 18:42 | 33.70086 | -93.75807 | 37024 ft | 529 kts | 59° |
| 2026-05-04 18:42 | 33.72526 | -93.67480 | 37012 ft | 528 kts | 59° |
| 2026-05-04 18:43 | 33.74964 | -93.59147 | 37003 ft | 528 kts | 59° |
| 2026-05-04 18:43 | 33.77384 | -93.50863 | 37008 ft | 529 kts | 59° |
| 2026-05-04 18:44 | 33.79817 | -93.42518 | 37013 ft | 529 kts | 59° |
| 2026-05-04 18:44 | 33.82245 | -93.34162 | 37013 ft | 529 kts | 59° |
| 2026-05-04 18:45 | 33.84670 | -93.25802 | 37018 ft | 529 kts | 59° |
| 2026-05-04 18:45 | 33.87087 | -93.17426 | 37019 ft | 529 kts | 59° |
| 2026-05-04 18:46 | 33.89497 | -93.09063 | 37021 ft | 526 kts | 57° |
| 2026-05-04 18:46 | 33.92416 | -93.01163 | 37044 ft | 518 kts | 53° |
| 2026-05-04 18:47 | 33.95402 | -92.93251 | 36987 ft | 515 kts | 53° |
| 2026-05-04 18:47 | 33.98341 | -92.85432 | 36991 ft | 516 kts | 53° |
| 2026-05-04 18:48 | 34.01305 | -92.77534 | 36985 ft | 516 kts | 53° |
| 2026-05-04 18:48 | 34.04269 | -92.69629 | 36993 ft | 517 kts | 53° |
| 2026-05-04 18:49 | 34.07220 | -92.61716 | 37013 ft | 517 kts | 53° |
| 2026-05-04 18:49 | 34.10146 | -92.53858 | 37006 ft | 516 kts | 53° |
| 2026-05-04 18:50 | 34.13095 | -92.45942 | 37006 ft | 516 kts | 53° |
| 2026-05-04 18:50 | 34.16030 | -92.38026 | 37008 ft | 517 kts | 53° |
| 2026-05-04 18:51 | 34.18962 | -92.30089 | 37014 ft | 517 kts | 53° |
| 2026-05-04 18:51 | 34.21870 | -92.22178 | 36981 ft | 512 kts | 54° |
| 2026-05-04 18:52 | 34.24744 | -92.14360 | 36990 ft | 512 kts | 53° |
| 2026-05-04 18:52 | 34.27646 | -92.06486 | 37004 ft | 513 kts | 53° |
| 2026-05-04 18:53 | 34.30540 | -91.98592 | 37006 ft | 514 kts | 54° |
| 2026-05-04 18:53 | 34.33427 | -91.90670 | 37050 ft | 514 kts | 54° |
| 2026-05-04 18:54 | 34.36308 | -91.82745 | 37027 ft | 514 kts | 54° |
| 2026-05-04 18:54 | 34.39189 | -91.74813 | 37025 ft | 514 kts | 54° |
| 2026-05-04 18:55 | 34.42052 | -91.66929 | 37014 ft | 514 kts | 54° |
| 2026-05-04 18:55 | 34.46353 | -91.55024 | 37028 ft | 513 kts | 54° |
| 2026-05-04 18:56 | 34.49210 | -91.47090 | 37000 ft | 511 kts | 56° |
| 2026-05-04 18:56 | 34.52025 | -91.39240 | 36997 ft | 511 kts | 56° |
| 2026-05-04 18:57 | 34.54860 | -91.31341 | 37006 ft | 511 kts | 56° |
| 2026-05-04 18:57 | 34.57691 | -91.23432 | 36993 ft | 511 kts | 56° |
| 2026-05-04 18:58 | 34.60512 | -91.15515 | 36989 ft | 511 kts | 56° |
| 2026-05-04 18:58 | 34.63335 | -91.07596 | 37008 ft | 511 kts | 56° |
| 2026-05-04 18:59 | 34.66148 | -90.99673 | 37000 ft | 510 kts | 56° |
| 2026-05-04 18:59 | 34.68952 | -90.91739 | 36996 ft | 510 kts | 56° |
| 2026-05-04 19:00 | 34.71747 | -90.83807 | 36992 ft | 510 kts | 56° |
| 2026-05-04 19:00 | 34.74549 | -90.75866 | 37048 ft | 511 kts | 57° |
| 2026-05-04 19:01 | 34.77329 | -90.67958 | 36978 ft | 508 kts | 57° |
| 2026-05-04 19:01 | 34.80099 | -90.60050 | 36982 ft | 508 kts | 57° |
| 2026-05-04 19:02 | 34.82867 | -90.52140 | 36986 ft | 508 kts | 57° |
| 2026-05-04 19:02 | 34.85639 | -90.44208 | 36989 ft | 509 kts | 57° |
| 2026-05-04 19:03 | 34.88402 | -90.36262 | 37008 ft | 509 kts | 58° |
| 2026-05-04 19:03 | 34.91133 | -90.28379 | 36992 ft | 508 kts | 58° |
| 2026-05-04 19:04 | 34.93885 | -90.20436 | 36990 ft | 508 kts | 58° |
| 2026-05-04 19:04 | 34.96633 | -90.12482 | 36987 ft | 508 kts | 58° |
| 2026-05-04 19:05 | 34.99350 | -90.04523 | 37037 ft | 511 kts | 62° |
| 2026-05-04 19:05 | 35.00754 | -89.95939 | 36979 ft | 525 kts | 84° |
| 2026-05-04 19:06 | 35.00560 | -89.91466 | 36983 ft | 531 kts | 95° |
| 2026-05-04 19:06 | 34.99934 | -89.87016 | 36990 ft | 532 kts | 96° |
| 2026-05-04 19:06 | 34.98668 | -89.78124 | 36967 ft | 533 kts | 96° |
| 2026-05-04 19:07 | 34.97414 | -89.69193 | 36971 ft | 534 kts | 96° |
| 2026-05-04 19:07 | 34.96164 | -89.60316 | 36976 ft | 535 kts | 96° |
| 2026-05-04 19:08 | 34.94892 | -89.51379 | 36981 ft | 535 kts | 96° |
| 2026-05-04 19:08 | 34.93612 | -89.42415 | 36991 ft | 536 kts | 96° |
| 2026-05-04 19:09 | 34.92317 | -89.33465 | 37008 ft | 536 kts | 96° |
| 2026-05-04 19:09 | 34.91017 | -89.24513 | 37008 ft | 537 kts | 96° |
| 2026-05-04 19:10 | 34.89715 | -89.15564 | 37026 ft | 535 kts | 97° |
| 2026-05-04 19:10 | 34.88417 | -89.06655 | 37023 ft | 534 kts | 97° |
| 2026-05-04 19:11 | 34.87101 | -88.97748 | 37019 ft | 533 kts | 97° |
| 2026-05-04 19:11 | 34.85783 | -88.88868 | 37022 ft | 533 kts | 97° |
| 2026-05-04 19:12 | 34.83817 | -88.75639 | 37033 ft | 530 kts | 98° |
| 2026-05-04 19:13 | 34.82491 | -88.66820 | 37028 ft | 528 kts | 98° |
| 2026-05-04 19:13 | 34.81388 | -88.59506 | 37027 ft | 527 kts | 98° |
| 2026-05-04 19:14 | 34.80070 | -88.50741 | 37025 ft | 526 kts | 98° |
| 2026-05-04 19:14 | 34.78520 | -88.40578 | 37035 ft | 524 kts | 98° |
| 2026-05-04 19:15 | 34.77190 | -88.31885 | 37026 ft | 522 kts | 98° |
| 2026-05-04 19:15 | 34.75863 | -88.23202 | 37025 ft | 521 kts | 98° |
| 2026-05-04 19:16 | 34.74760 | -88.15994 | 37025 ft | 521 kts | 98° |
| 2026-05-04 19:16 | 34.73425 | -88.07350 | 37032 ft | 519 kts | 99° |
| 2026-05-04 19:17 | 34.72083 | -87.98726 | 37031 ft | 518 kts | 99° |
| 2026-05-04 19:17 | 34.70734 | -87.90118 | 37008 ft | 518 kts | 99° |
| 2026-05-04 19:18 | 34.69373 | -87.81513 | 37009 ft | 519 kts | 99° |
| 2026-05-04 19:18 | 34.68003 | -87.72898 | 37012 ft | 519 kts | 99° |
| 2026-05-04 19:19 | 34.66637 | -87.64287 | 37034 ft | 518 kts | 99° |
| 2026-05-04 19:19 | 34.65282 | -87.55729 | 37035 ft | 517 kts | 99° |
| 2026-05-04 19:20 | 34.63907 | -87.47163 | 37034 ft | 517 kts | 99° |
| 2026-05-04 19:20 | 34.62502 | -87.38605 | 37034 ft | 517 kts | 101° |
| 2026-05-04 19:21 | 34.60923 | -87.30090 | 37037 ft | 517 kts | 102° |
| 2026-05-04 19:21 | 34.59287 | -87.21584 | 37048 ft | 516 kts | 102° |
| 2026-05-04 19:22 | 34.57697 | -87.13084 | 37062 ft | 516 kts | 102° |
| 2026-05-04 19:22 | 34.56158 | -87.04574 | 37065 ft | 516 kts | 101° |
| 2026-05-04 19:23 | 34.54712 | -86.96042 | 37066 ft | 516 kts | 100° |
| 2026-05-04 19:23 | 34.52813 | -86.87719 | 37074 ft | 515 kts | 107° |
| 2026-05-04 19:24 | 34.50664 | -86.79445 | 37065 ft | 514 kts | 108° |
| 2026-05-04 19:24 | 34.48488 | -86.71198 | 37058 ft | 513 kts | 108° |
| 2026-05-04 19:25 | 34.46335 | -86.62959 | 37057 ft | 512 kts | 107° |
| 2026-05-04 19:25 | 34.44188 | -86.54727 | 37066 ft | 512 kts | 108° |
| 2026-05-04 19:26 | 34.42030 | -86.46526 | 37033 ft | 511 kts | 108° |
| 2026-05-04 19:26 | 34.39858 | -86.38313 | 37046 ft | 512 kts | 108° |
| 2026-05-04 19:27 | 34.37686 | -86.30101 | 37052 ft | 512 kts | 108° |
| 2026-05-04 19:27 | 34.35511 | -86.21878 | 37041 ft | 513 kts | 108° |
| 2026-05-04 19:28 | 34.33344 | -86.13718 | 37056 ft | 512 kts | 108° |
| 2026-05-04 19:28 | 34.31190 | -86.05495 | 37059 ft | 512 kts | 108° |
| 2026-05-04 19:29 | 34.29069 | -85.97270 | 37061 ft | 512 kts | 108° |
| 2026-05-04 19:29 | 34.26950 | -85.89050 | 37062 ft | 511 kts | 108° |
| 2026-05-04 19:30 | 34.24811 | -85.80846 | 37067 ft | 512 kts | 108° |
| 2026-05-04 19:30 | 34.22664 | -85.72675 | 36822 ft | 503 kts | 108° |
| 2026-05-04 19:30 | 34.21616 | -85.68685 | 36558 ft | 495 kts | 108° |
| 2026-05-04 19:31 | 34.20579 | -85.64740 | 36297 ft | 491 kts | 108° |
| 2026-05-04 19:31 | 34.19542 | -85.60796 | 35563 ft | 494 kts | 108° |
| 2026-05-04 19:31 | 34.18505 | -85.56859 | 35018 ft | 489 kts | 108° |
| 2026-05-04 19:31 | 34.17473 | -85.52954 | 34373 ft | 488 kts | 108° |
| 2026-05-04 19:32 | 34.16442 | -85.49056 | 33676 ft | 486 kts | 108° |
| 2026-05-04 19:32 | 34.15414 | -85.45181 | 33009 ft | 483 kts | 109° |
| 2026-05-04 19:32 | 34.14391 | -85.41334 | 32390 ft | 480 kts | 109° |
| 2026-05-04 19:32 | 34.13378 | -85.37509 | 31775 ft | 476 kts | 108° |
| 2026-05-04 19:33 | 34.12388 | -85.33705 | 31116 ft | 474 kts | 108° |
| 2026-05-04 19:33 | 34.11424 | -85.29958 | 30501 ft | 473 kts | 108° |
| 2026-05-04 19:33 | 34.10448 | -85.26155 | 29784 ft | 473 kts | 108° |
| 2026-05-04 19:33 | 34.09477 | -85.22376 | 29088 ft | 470 kts | 108° |
| 2026-05-04 19:34 | 34.08503 | -85.18614 | 28403 ft | 469 kts | 108° |
| 2026-05-04 19:34 | 34.07528 | -85.14865 | 27716 ft | 467 kts | 109° |
| 2026-05-04 19:34 | 34.06540 | -85.11148 | 27039 ft | 464 kts | 111° |
| 2026-05-04 19:34 | 34.05233 | -85.07613 | 26367 ft | 460 kts | 121° |
| 2026-05-04 19:35 | 34.03511 | -85.04389 | 25697 ft | 455 kts | 130° |
| 2026-05-04 19:35 | 34.01442 | -85.01539 | 25059 ft | 449 kts | 139° |
| 2026-05-04 19:35 | 33.99118 | -84.99047 | 24400 ft | 445 kts | 143° |
| 2026-05-04 19:35 | 33.96773 | -84.96616 | 23757 ft | 443 kts | 143° |
| 2026-05-04 19:36 | 33.94436 | -84.94191 | 23053 ft | 441 kts | 143° |
| 2026-05-04 19:36 | 33.92128 | -84.91790 | 22458 ft | 436 kts | 143° |
| 2026-05-04 19:36 | 33.89837 | -84.89407 | 21859 ft | 432 kts | 142° |
| 2026-05-04 19:36 | 33.87600 | -84.87089 | 21316 ft | 428 kts | 143° |
| 2026-05-04 19:37 | 33.85350 | -84.84763 | 20764 ft | 424 kts | 142° |
| 2026-05-04 19:37 | 33.83121 | -84.82460 | 20243 ft | 420 kts | 142° |
| 2026-05-04 19:37 | 33.80913 | -84.80180 | 19732 ft | 416 kts | 142° |
| 2026-05-04 19:37 | 33.78724 | -84.77920 | 19231 ft | 413 kts | 142° |
| 2026-05-04 19:38 | 33.76663 | -84.75536 | 18728 ft | 412 kts | 133° |
| 2026-05-04 19:38 | 33.75022 | -84.72700 | 18207 ft | 412 kts | 121° |
| 2026-05-04 19:38 | 33.73897 | -84.69532 | 17584 ft | 413 kts | 108° |
| 2026-05-04 19:38 | 33.73337 | -84.66151 | 17004 ft | 412 kts | 95° |
| 2026-05-04 19:39 | 33.73277 | -84.62722 | 16447 ft | 409 kts | 90° |
| 2026-05-04 19:39 | 33.73288 | -84.59314 | 15885 ft | 407 kts | 90° |
| 2026-05-04 19:39 | 33.73292 | -84.55924 | 15323 ft | 405 kts | 90° |
| 2026-05-04 19:39 | 33.73292 | -84.52548 | 14773 ft | 402 kts | 90° |
| 2026-05-04 19:40 | 33.73288 | -84.49235 | 14221 ft | 400 kts | 90° |
| 2026-05-04 19:40 | 33.73285 | -84.45903 | 13646 ft | 397 kts | 90° |
| 2026-05-04 19:40 | 33.73283 | -84.42605 | 13042 ft | 393 kts | 90° |
| 2026-05-04 19:40 | 33.73282 | -84.39354 | 12461 ft | 381 kts | 91° |
| 2026-05-04 19:41 | 33.73280 | -84.36252 | 11898 ft | 366 kts | 91° |
| 2026-05-04 19:41 | 33.73280 | -84.33205 | 11344 ft | 363 kts | 91° |
| 2026-05-04 19:41 | 33.73279 | -84.30185 | 10784 ft | 361 kts | 92° |
| 2026-05-04 19:41 | 33.73280 | -84.27220 | 10577 ft | 347 kts | 91° |
| 2026-05-04 19:42 | 33.73286 | -84.24397 | 10453 ft | 325 kts | 91° |
| 2026-05-04 19:42 | 33.73296 | -84.21783 | 10229 ft | 303 kts | 92° |
| 2026-05-04 19:42 | 33.73302 | -84.19281 | 9819 ft | 295 kts | 92° |
| 2026-05-04 19:42 | 33.73303 | -84.16828 | 9689 ft | 293 kts | 92° |
| 2026-05-04 19:43 | 33.73300 | -84.14383 | 9561 ft | 293 kts | 92° |
| 2026-05-04 19:43 | 33.73294 | -84.11938 | 9454 ft | 292 kts | 92° |
| 2026-05-04 19:43 | 33.73294 | -84.09493 | 9242 ft | 292 kts | 92° |
| 2026-05-04 19:43 | 33.73298 | -84.07057 | 8894 ft | 290 kts | 92° |
| 2026-05-04 19:44 | 33.73302 | -84.04668 | 8532 ft | 289 kts | 92° |
| 2026-05-04 19:44 | 33.73003 | -84.02330 | 8200 ft | 280 kts | 117° |
| 2026-05-04 19:44 | 33.71780 | -84.00593 | 7895 ft | 273 kts | 150° |
| 2026-05-04 19:44 | 33.69992 | -83.99980 | 7577 ft | 269 kts | 183° |
| 2026-05-04 19:45 | 33.68157 | -84.00385 | 7297 ft | 269 kts | 193° |
| 2026-05-04 19:45 | 33.66432 | -84.01205 | 6937 ft | 267 kts | 216° |
| 2026-05-04 19:45 | 33.65254 | -84.02864 | 6581 ft | 258 kts | 244° |
| 2026-05-04 19:45 | 33.64895 | -84.04906 | 6212 ft | 248 kts | 268° |
| 2026-05-04 19:46 | 33.64903 | -84.06970 | 5837 ft | 247 kts | 269° |
| 2026-05-04 19:46 | 33.64911 | -84.09034 | 5496 ft | 247 kts | 268° |
| 2026-05-04 19:46 | 33.64917 | -84.11100 | 5177 ft | 246 kts | 269° |
| 2026-05-04 19:46 | 33.64921 | -84.13124 | 4984 ft | 237 kts | 269° |
| 2026-05-04 19:47 | 33.64926 | -84.15033 | 4982 ft | 220 kts | 269° |
| 2026-05-04 19:47 | 33.64930 | -84.16805 | 4867 ft | 211 kts | 269° |
| 2026-05-04 19:47 | 33.64933 | -84.18534 | 4636 ft | 205 kts | 269° |
| 2026-05-04 19:47 | 33.64937 | -84.20263 | 4351 ft | 205 kts | 268° |
| 2026-05-04 19:48 | 33.64940 | -84.21928 | 4075 ft | 199 kts | 267° |
| 2026-05-04 19:48 | 33.64941 | -84.23588 | 3814 ft | 194 kts | 268° |
| 2026-05-04 19:48 | 33.64944 | -84.25163 | 3570 ft | 188 kts | 269° |
| 2026-05-04 19:48 | 33.64945 | -84.26714 | 3326 ft | 185 kts | 269° |
| 2026-05-04 19:49 | 33.64947 | -84.28198 | 3088 ft | 169 kts | 268° |
| 2026-05-04 19:49 | 33.64950 | -84.29543 | 2890 ft | 154 kts | 266° |
| 2026-05-04 19:49 | 33.64950 | -84.30814 | 2674 ft | 149 kts | 267° |
| 2026-05-04 19:49 | 33.64950 | -84.32066 | 2492 ft | 150 kts | 267° |
| 2026-05-04 19:50 | 33.64951 | -84.33306 | 2295 ft | 149 kts | 266° |
| 2026-05-04 19:50 | 33.64952 | -84.34546 | 2101 ft | 148 kts | 267° |
| 2026-05-04 19:50 | 33.64952 | -84.35770 | 1903 ft | 147 kts | 267° |
| 2026-05-04 19:50 | 33.64953 | -84.36998 | 1706 ft | 147 kts | 268° |
| 2026-05-04 19:51 | 33.64964 | -84.38222 | 1482 ft | 147 kts | 266° |
| 2026-05-04 19:51 | 33.64953 | -84.39442 | 1286 ft | 147 kts | 268° |
| 2026-05-04 19:51 | 33.64958 | -84.40661 | 1110 ft | 144 kts | 265° |
| 2026-05-04 19:51 | 33.64955 | -84.41823 | 1035 ft | 125 kts | 267° |
| 2026-05-04 19:52 | 33.64949 | -84.42653 | 1036 ft | 75 kts | 271° |
| 2026-05-04 19:52 | 33.64950 | -84.43091 | 1035 ft | 35 kts | 265° |
| 2026-05-04 19:52 | 33.64874 | -84.43309 | 1035 ft | 20 kts | 243° |
| 2026-05-04 19:52 | 33.64844 | -84.43455 | 1036 ft | 19 kts | 269° |
| 2026-05-04 19:53 | 33.64843 | -84.43620 | 1036 ft | 21 kts | 271° |
| 2026-05-04 19:53 | 33.64844 | -84.43783 | 1035 ft | 13 kts | 270° |
| 2026-05-04 19:53 | 33.64774 | -84.43828 | 1035 ft | 15 kts | 168° |
| 2026-05-04 19:53 | 33.64667 | -84.43820 | 1035 ft | 17 kts | 181° |
| 2026-05-04 19:54 | 33.64543 | -84.43823 | 1035 ft | 16 kts | 181° |
| 2026-05-04 19:54 | 33.64448 | -84.43803 | 1035 ft | 15 kts | 152° |
| 2026-05-04 19:54 | 33.64338 | -84.43789 | 1035 ft | 17 kts | 179° |
| 2026-05-04 19:54 | 33.64276 | -84.43790 | 1035 ft | 5 kts | 192° |
| 2026-05-04 19:55 | 33.64266 | -84.43824 | 1035 ft | 4 kts | 269° |
| 2026-05-04 19:55 | 33.64266 | -84.43844 | 1035 ft | 3 kts | 270° |
| 2026-05-04 19:55 | 33.64266 | -84.43867 | 1035 ft | 2 kts | 270° |